Time;durP1;ratioP1;P1;durP2;ratioP2;P2;SDS_P1;SDS_P2;PMS_P1;PMS_P2;Temp;Humidity;BMP_temperature;BMP_pressure;BME280_temperature;BME280_humidity;BME280_pressure;Samples;Min_cycle;Max_cycle;Signal;HPM_P1;HPM_P2
2023/12/08 00:01:34;;;;;;;14.80;10.68;;;;;;;;;;4958880;29;20191;-83
2023/12/08 00:04:00;;;;;;;10.75;8.48;;;;;;;;;;4958964;28;20196;-83
2023/12/08 00:06:26;;;;;;;14.63;9.60;;;;;;;;;;4962888;29;20182;-83
2023/12/08 00:08:52;;;;;;;18.35;9.43;;;;;;;;;;4962913;28;20704;-83
2023/12/08 00:11:18;;;;;;;13.27;8.85;;;;;;;;;;4962424;29;20267;-84
2023/12/08 00:13:44;;;;;;;15.43;9.90;;;;;;;;;;4962404;28;20184;-86
2023/12/08 00:16:10;;;;;;;16.50;10.35;;;;;;;;;;4962250;28;20180;-86
2023/12/08 00:18:36;;;;;;;15.55;11.05;;;;;;;;;;4961977;29;20580;-83
2023/12/08 00:21:02;;;;;;;15.73;10.43;;;;;;;;;;4962161;29;20188;-84
2023/12/08 00:23:29;;;;;;;20.23;10.52;;;;;;;;;;4962202;28;20177;-86
2023/12/08 00:25:55;;;;;;;16.02;11.32;;;;;;;;;;4962575;29;20191;-83
2023/12/08 00:28:21;;;;;;;18.45;10.75;;;;;;;;;;4976439;28;20653;-84
2023/12/08 00:30:47;;;;;;;14.40;10.48;;;;;;;;;;4977150;28;20215;-84
2023/12/08 00:33:13;;;;;;;17.05;10.35;;;;;;;;;;4961556;29;20274;-83
2023/12/08 00:35:39;;;;;;;16.13;10.98;;;;;;;;;;4977312;28;20184;-83
2023/12/08 00:38:05;;;;;;;21.20;9.33;;;;;;;;;;4960841;29;20212;-84
2023/12/08 00:40:31;;;;;;;16.95;9.32;;;;;;;;;;4961261;28;20420;-86
2023/12/08 00:42:57;;;;;;;19.70;10.70;;;;;;;;;;4962012;29;20190;-83
2023/12/08 00:45:24;;;;;;;13.25;9.07;;;;;;;;;;4961893;29;20409;-84
2023/12/08 00:47:49;;;;;;;18.50;12.00;;;;;;;;;;4961053;28;20173;-85
2023/12/08 00:50:16;;;;;;;21.70;10.40;;;;;;;;;;4961561;29;20268;-85
2023/12/08 00:52:42;;;;;;;14.57;9.95;;;;;;;;;;4961581;29;20468;-83
2023/12/08 00:55:08;;;;;;;15.82;10.52;;;;;;;;;;4961735;28;20185;-83
2023/12/08 00:57:34;;;;;;;13.63;10.20;;;;;;;;;;4960079;28;20641;-84
2023/12/08 01:00:00;;;;;;;17.92;10.93;;;;;;;;;;4961834;29;20202;-83
2023/12/08 01:02:26;;;;;;;16.58;11.60;;;;;;;;;;4961164;28;20243;-84
2023/12/08 01:04:52;;;;;;;13.80;9.15;;;;;;;;;;4961409;28;20279;-84
2023/12/08 01:07:18;;;;;;;16.67;9.20;;;;;;;;;;4961658;29;20759;-85
2023/12/08 01:09:44;;;;;;;16.00;9.93;;;;;;;;;;4961771;28;20418;-85
2023/12/08 01:12:10;;;;;;;14.90;9.90;;;;;;;;;;4960982;29;20230;-83
2023/12/08 01:14:36;;;;;;;14.95;10.23;;;;;;;;;;4961292;29;20412;-83
2023/12/08 01:17:02;;;;;;;19.77;10.68;;;;;;;;;;4960233;28;20637;-84
2023/12/08 01:19:28;;;;;;;16.38;9.90;;;;;;;;;;4960782;29;20189;-83
2023/12/08 01:21:54;;;;;;;11.52;7.95;;;;;;;;;;4975823;28;20585;-83
2023/12/08 01:24:20;;;;;;;10.80;8.60;;;;;;;;;;4961255;29;20198;-84
2023/12/08 01:26:46;;;;;;;13.90;9.50;;;;;;;;;;4960503;28;20909;-83
2023/12/08 01:29:12;;;;;;;17.75;11.00;;;;;;;;;;4960743;28;20848;-84
2023/12/08 01:31:38;;;;;;;16.75;11.05;;;;;;;;;;4960762;28;20216;-84
2023/12/08 01:34:04;;;;;;;15.00;10.73;;;;;;;;;;4959786;29;20195;-83
2023/12/08 01:36:30;;;;;;;13.38;9.77;;;;;;;;;;4960703;29;20185;-82
2023/12/08 01:38:57;;;;;;;12.73;8.70;;;;;;;;;;4960883;28;20238;-82
2023/12/08 01:41:23;;;;;;;11.45;8.43;;;;;;;;;;4961022;28;20667;-83
2023/12/08 01:43:49;;;;;;;13.45;9.65;;;;;;;;;;4961633;29;20176;-82
2023/12/08 01:46:15;;;;;;;14.83;10.00;;;;;;;;;;4960219;28;20184;-83
2023/12/08 01:48:45;;;;;;;14.35;10.38;;;;;;;;;;4961679;29;20506;-81
2023/12/08 01:51:12;;;;;;;13.18;9.35;;;;;;;;;;4960698;29;20207;-81
2023/12/08 01:53:38;;;;;;;13.27;10.23;;;;;;;;;;4960999;29;20195;-81
2023/12/08 01:56:05;;;;;;;13.52;9.45;;;;;;;;;;4960278;28;20199;-82
2023/12/08 01:58:31;;;;;;;17.10;10.88;;;;;;;;;;4961882;28;20274;-81
2023/12/08 02:00:58;;;;;;;15.80;11.10;;;;;;;;;;4961807;28;20211;-81
2023/12/08 02:03:25;;;;;;;16.13;9.75;;;;;;;;;;4960956;28;20404;-81
2023/12/08 02:05:51;;;;;;;18.15;11.13;;;;;;;;;;4961535;29;20261;-81
2023/12/08 02:08:18;;;;;;;17.50;11.17;;;;;;;;;;4960760;28;20710;-81
2023/12/08 02:10:44;;;;;;;18.30;12.13;;;;;;;;;;4961171;29;20890;-81
2023/12/08 02:13:16;;;;;;;16.80;11.57;;;;;;;;;;4961954;29;20225;-81
2023/12/08 02:15:42;;;;;;;18.27;11.52;;;;;;;;;;4961439;29;20658;-81
2023/12/08 02:18:09;;;;;;;18.83;11.48;;;;;;;;;;4960992;29;20194;-81
2023/12/08 02:20:35;;;;;;;19.17;11.70;;;;;;;;;;4960035;28;20199;-81
2023/12/08 02:23:05;;;;;;;21.05;13.75;;;;;;;;;;4961444;28;20270;-81
2023/12/08 02:25:30;;;;;;;20.10;13.73;;;;;;;;;;4961207;28;20187;-82
2023/12/08 02:27:56;;;;;;;17.17;12.07;;;;;;;;;;4960587;28;20532;-81
2023/12/08 02:30:22;;;;;;;21.60;11.13;;;;;;;;;;4960993;28;20551;-83
2023/12/08 02:33:08;;;;;;;19.60;12.70;;;;;;;;;;4961242;29;20476;-82
2023/12/08 02:35:38;;;;;;;20.05;11.70;;;;;;;;;;4959994;29;20404;-81
2023/12/08 02:38:04;;;;;;;19.33;12.68;;;;;;;;;;4960263;29;20200;-82
2023/12/08 02:40:30;;;;;;;20.85;12.00;;;;;;;;;;4961065;29;20183;-81
2023/12/08 02:42:57;;;;;;;18.58;11.73;;;;;;;;;;4960025;28;20188;-82
2023/12/08 02:45:23;;;;;;;19.75;11.82;;;;;;;;;;4959679;29;20261;-86
2023/12/08 02:47:49;;;;;;;18.80;11.80;;;;;;;;;;4960137;29;20227;-82
2023/12/08 02:50:15;;;;;;;21.48;13.43;;;;;;;;;;4960542;28;20412;-82
2023/12/08 02:52:41;;;;;;;20.00;11.25;;;;;;;;;;4958731;28;20223;-83
2023/12/08 02:55:07;;;;;;;20.70;11.70;;;;;;;;;;4960601;28;20547;-82
2023/12/08 02:57:33;;;;;;;16.80;12.13;;;;;;;;;;4959861;29;20407;-83
2023/12/08 03:00:00;;;;;;;20.97;12.17;;;;;;;;;;4960099;28;20193;-82
2023/12/08 03:02:26;;;;;;;17.70;10.93;;;;;;;;;;4959951;29;20436;-82
2023/12/08 03:04:52;;;;;;;16.60;11.83;;;;;;;;;;4975494;28;20213;-82
2023/12/08 03:07:18;;;;;;;17.63;10.80;;;;;;;;;;4959404;28;20481;-82
2023/12/08 03:09:44;;;;;;;16.50;12.20;;;;;;;;;;4958710;29;20944;-81
2023/12/08 03:12:10;;;;;;;21.50;12.00;;;;;;;;;;4960547;28;20476;-81
2023/12/08 03:14:36;;;;;;;16.48;10.93;;;;;;;;;;4960466;29;20779;-82
2023/12/08 03:17:01;;;;;;;21.40;12.45;;;;;;;;;;4959393;29;20186;-82
2023/12/08 03:19:27;;;;;;;26.00;11.88;;;;;;;;;;4959685;28;20702;-83
2023/12/08 03:21:53;;;;;;;21.10;12.77;;;;;;;;;;4959471;28;20195;-82
2023/12/08 03:24:19;;;;;;;24.40;13.52;;;;;;;;;;4959661;29;20415;-82
2023/12/08 03:26:46;;;;;;;18.33;12.52;;;;;;;;;;4959164;28;20219;-84
2023/12/08 03:29:15;;;;;;;24.23;13.95;;;;;;;;;;4958973;28;20195;-83
2023/12/08 03:31:41;;;;;;;20.35;12.88;;;;;;;;;;4959565;29;20235;-82
2023/12/08 03:34:07;;;;;;;22.15;12.80;;;;;;;;;;4959721;29;20191;-82
2023/12/08 03:36:33;;;;;;;22.13;15.05;;;;;;;;;;4959210;28;20245;-82
2023/12/08 03:38:59;;;;;;;21.40;13.75;;;;;;;;;;4960127;28;20207;-82
2023/12/08 03:41:25;;;;;;;22.00;14.75;;;;;;;;;;4963618;29;20258;-81
2023/12/08 03:43:51;;;;;;;24.10;15.00;;;;;;;;;;4963680;28;20226;-81
2023/12/08 03:46:17;;;;;;;21.10;14.07;;;;;;;;;;4963694;28;20214;-81
2023/12/08 03:48:43;;;;;;;32.33;15.03;;;;;;;;;;4962916;28;20184;-81
2023/12/08 03:51:09;;;;;;;28.00;15.93;;;;;;;;;;4963046;29;20471;-81
2023/12/08 03:53:35;;;;;;;28.13;15.47;;;;;;;;;;4962724;29;20195;-81
2023/12/08 03:56:02;;;;;;;26.17;14.60;;;;;;;;;;4962568;29;20416;-81
2023/12/08 03:58:28;;;;;;;28.35;17.40;;;;;;;;;;4963420;29;20234;-82
2023/12/08 04:00:54;;;;;;;23.15;14.38;;;;;;;;;;4963091;29;20194;-81
2023/12/08 04:03:20;;;;;;;27.50;15.82;;;;;;;;;;4963195;29;20199;-81
2023/12/08 04:05:46;;;;;;;29.00;16.80;;;;;;;;;;4962480;29;20187;-82
2023/12/08 04:08:12;;;;;;;26.45;15.85;;;;;;;;;;4963273;29;20269;-81
2023/12/08 04:10:38;;;;;;;26.23;15.57;;;;;;;;;;4962757;29;20646;-82
2023/12/08 04:13:04;;;;;;;26.83;16.08;;;;;;;;;;4962968;29;20175;-81
2023/12/08 04:15:30;;;;;;;19.67;14.50;;;;;;;;;;4962948;28;20577;-81
2023/12/08 04:17:56;;;;;;;26.60;15.43;;;;;;;;;;4962988;29;20493;-81
2023/12/08 04:20:23;;;;;;;21.10;14.53;;;;;;;;;;4963357;29;20425;-81
2023/12/08 04:22:49;;;;;;;27.45;17.20;;;;;;;;;;4963018;28;21024;-81
2023/12/08 04:25:15;;;;;;;29.60;16.20;;;;;;;;;;4962753;29;20200;-80
2023/12/08 04:27:41;;;;;;;29.90;16.80;;;;;;;;;;4962772;29;20191;-81
2023/12/08 04:30:07;;;;;;;26.92;16.40;;;;;;;;;;4962837;28;20203;-80
2023/12/08 04:32:34;;;;;;;24.17;14.90;;;;;;;;;;4963075;29;20263;-81
2023/12/08 04:34:59;;;;;;;30.20;16.08;;;;;;;;;;4962368;28;20251;-80
2023/12/08 04:37:26;;;;;;;28.00;15.67;;;;;;;;;;4962884;28;20598;-81
2023/12/08 04:39:52;;;;;;;26.40;16.40;;;;;;;;;;4962458;29;20411;-81
2023/12/08 04:42:18;;;;;;;28.07;18.10;;;;;;;;;;4963183;28;20239;-81
2023/12/08 04:44:44;;;;;;;27.25;16.23;;;;;;;;;;4961933;29;20422;-82
2023/12/08 04:47:10;;;;;;;26.83;15.30;;;;;;;;;;4962381;29;20198;-82
2023/12/08 04:49:36;;;;;;;23.30;16.38;;;;;;;;;;4962448;28;20177;-82
2023/12/08 04:52:02;;;;;;;23.45;15.02;;;;;;;;;;4961017;28;20213;-82
2023/12/08 04:54:28;;;;;;;27.90;14.35;;;;;;;;;;4962244;28;20202;-82
2023/12/08 04:56:54;;;;;;;25.03;14.03;;;;;;;;;;4962047;28;20185;-82
2023/12/08 04:59:20;;;;;;;29.13;16.52;;;;;;;;;;4961499;28;20420;-82
2023/12/08 05:01:53;;;;;;;28.33;15.68;;;;;;;;;;4965569;28;20213;-82
2023/12/08 05:04:19;;;;;;;25.85;15.55;;;;;;;;;;4981585;28;20183;-82
2023/12/08 05:06:47;;;;;;;25.35;15.45;;;;;;;;;;4979805;28;20193;-82
2023/12/08 05:09:13;;;;;;;23.20;14.45;;;;;;;;;;4981287;28;20200;-82
2023/12/08 05:11:39;;;;;;;22.05;15.02;;;;;;;;;;4980646;28;20203;-82
2023/12/08 05:14:05;;;;;;;22.85;15.00;;;;;;;;;;4980514;28;20275;-81
2023/12/08 05:16:31;;;;;;;22.17;13.73;;;;;;;;;;4981218;28;20646;-82
2023/12/08 05:18:57;;;;;;;27.02;15.05;;;;;;;;;;4981163;28;20416;-82
2023/12/08 05:21:24;;;;;;;29.13;16.27;;;;;;;;;;4980616;28;20216;-81
2023/12/08 05:23:50;;;;;;;25.45;16.02;;;;;;;;;;4979431;28;20464;-82
2023/12/08 05:26:16;;;;;;;26.07;15.40;;;;;;;;;;4980578;28;20215;-81
2023/12/08 05:28:42;;;;;;;26.50;16.43;;;;;;;;;;4980783;28;20425;-82
2023/12/08 05:31:07;;;;;;;28.73;16.17;;;;;;;;;;4980173;28;20469;-82
2023/12/08 05:33:34;;;;;;;35.13;17.98;;;;;;;;;;4980596;28;20954;-85
2023/12/08 05:36:00;;;;;;;31.73;16.67;;;;;;;;;;4981203;28;20179;-81
2023/12/08 05:38:26;;;;;;;28.40;17.83;;;;;;;;;;4980428;28;20187;-81
2023/12/08 05:40:52;;;;;;;25.50;15.53;;;;;;;;;;4980360;28;20413;-81
2023/12/08 05:43:18;;;;;;;30.45;18.20;;;;;;;;;;4980752;28;20425;-81
2023/12/08 05:45:44;;;;;;;25.95;16.50;;;;;;;;;;4980604;28;20178;-81
2023/12/08 05:48:11;;;;;;;26.60;17.38;;;;;;;;;;4980850;28;20205;-81
2023/12/08 05:50:37;;;;;;;27.30;17.50;;;;;;;;;;4978999;28;20198;-81
2023/12/08 05:53:03;;;;;;;29.47;17.30;;;;;;;;;;4980923;28;20198;-81
2023/12/08 05:55:29;;;;;;;33.00;18.33;;;;;;;;;;4980647;28;20498;-81
2023/12/08 05:57:55;;;;;;;29.13;18.90;;;;;;;;;;4980333;28;20429;-81
2023/12/08 06:00:21;;;;;;;25.20;15.23;;;;;;;;;;4980225;28;20469;-81
2023/12/08 06:02:47;;;;;;;29.05;18.25;;;;;;;;;;4979150;28;20920;-81
2023/12/08 06:05:13;;;;;;;36.00;18.20;;;;;;;;;;4980156;28;20183;-81
2023/12/08 06:07:39;;;;;;;28.42;17.23;;;;;;;;;;4979744;28;20283;-81
2023/12/08 06:10:05;;;;;;;25.98;16.73;;;;;;;;;;4980405;28;20187;-81
2023/12/08 06:12:31;;;;;;;28.30;16.63;;;;;;;;;;4980094;28;20210;-81
2023/12/08 06:15:00;;;;;;;31.02;16.60;;;;;;;;;;4979526;28;20212;-81
2023/12/08 06:17:26;;;;;;;22.70;15.90;;;;;;;;;;4979966;28;20183;-81
2023/12/08 06:19:52;;;;;;;27.55;17.73;;;;;;;;;;4979604;28;20179;-81
2023/12/08 06:22:18;;;;;;;28.33;17.23;;;;;;;;;;4978823;28;20193;-81
2023/12/08 06:24:44;;;;;;;28.40;17.65;;;;;;;;;;4979365;28;20175;-81
2023/12/08 06:27:10;;;;;;;28.90;17.03;;;;;;;;;;4979462;28;20180;-81
2023/12/08 06:29:36;;;;;;;27.65;17.70;;;;;;;;;;4979859;28;20416;-85
2023/12/08 06:32:02;;;;;;;26.90;18.13;;;;;;;;;;4978505;28;20251;-81
2023/12/08 06:34:28;;;;;;;26.95;16.60;;;;;;;;;;4979920;28;20450;-81
2023/12/08 06:36:54;;;;;;;29.80;17.52;;;;;;;;;;4979622;28;20222;-81
2023/12/08 06:39:20;;;;;;;31.43;17.87;;;;;;;;;;4979594;28;20234;-81
2023/12/08 06:41:46;;;;;;;35.97;19.03;;;;;;;;;;4978729;28;20781;-81
2023/12/08 06:44:12;;;;;;;26.80;17.17;;;;;;;;;;4979814;28;20821;-80
2023/12/08 06:46:38;;;;;;;29.10;17.23;;;;;;;;;;4979900;28;20187;-81
2023/12/08 06:49:05;;;;;;;29.40;17.40;;;;;;;;;;4980674;28;20834;-81
2023/12/08 06:51:31;;;;;;;33.08;18.65;;;;;;;;;;4979959;28;20892;-80
2023/12/08 06:53:57;;;;;;;31.30;18.43;;;;;;;;;;4979573;28;20190;-81
2023/12/08 06:56:23;;;;;;;28.48;17.75;;;;;;;;;;4979666;28;20433;-81
2023/12/08 06:58:49;;;;;;;24.73;16.02;;;;;;;;;;4980084;28;20181;-81
2023/12/08 07:01:15;;;;;;;30.13;16.65;;;;;;;;;;4979610;28;20237;-80
2023/12/08 07:03:41;;;;;;;28.20;16.67;;;;;;;;;;4978206;28;20238;-80
2023/12/08 07:06:07;;;;;;;30.50;19.47;;;;;;;;;;4980204;28;20190;-81
2023/12/08 07:08:33;;;;;;;28.77;18.20;;;;;;;;;;4979158;28;20567;-82
2023/12/08 07:10:59;;;;;;;30.23;18.43;;;;;;;;;;4979509;28;20489;-82
2023/12/08 07:13:25;;;;;;;25.43;16.63;;;;;;;;;;4980409;28;20410;-81
2023/12/08 07:15:51;;;;;;;25.00;17.17;;;;;;;;;;4983826;28;20421;-82
2023/12/08 07:18:17;;;;;;;29.88;18.40;;;;;;;;;;4983592;28;20748;-81
2023/12/08 07:20:43;;;;;;;31.83;17.17;;;;;;;;;;4983791;28;20193;-82
2023/12/08 07:23:10;;;;;;;32.42;18.08;;;;;;;;;;4984120;28;20493;-81
2023/12/08 07:25:36;;;;;;;31.17;19.45;;;;;;;;;;4984002;28;20173;-81
2023/12/08 07:28:02;;;;;;;29.65;18.38;;;;;;;;;;4983024;28;20188;-80
2023/12/08 07:30:28;;;;;;;27.67;17.67;;;;;;;;;;4983980;28;20306;-80
2023/12/08 07:32:54;;;;;;;29.57;18.87;;;;;;;;;;4983397;28;20247;-81
2023/12/08 07:35:20;;;;;;;30.50;18.20;;;;;;;;;;4983316;28;20816;-80
2023/12/08 07:37:46;;;;;;;30.00;18.70;;;;;;;;;;4983114;28;20215;-81
2023/12/08 07:40:12;;;;;;;28.75;18.10;;;;;;;;;;4982244;28;20414;-81
2023/12/08 07:42:39;;;;;;;31.90;19.60;;;;;;;;;;4981462;28;20183;-81
2023/12/08 07:45:05;;;;;;;28.60;17.42;;;;;;;;;;4982919;28;20207;-81
2023/12/08 07:47:33;;;;;;;32.58;19.30;;;;;;;;;;4983747;28;20180;-81
2023/12/08 07:49:59;;;;;;;27.65;16.77;;;;;;;;;;4982816;28;20184;-81
2023/12/08 07:52:26;;;;;;;31.73;19.10;;;;;;;;;;4983549;28;20222;-81
2023/12/08 07:54:52;;;;;;;31.80;19.40;;;;;;;;;;4982638;28;20214;-81
2023/12/08 07:57:21;;;;;;;33.83;19.85;;;;;;;;;;4982518;28;20519;-81
2023/12/08 07:59:47;;;;;;;26.90;17.08;;;;;;;;;;4982634;28;20195;-80
2023/12/08 08:02:13;;;;;;;29.60;19.15;;;;;;;;;;4982528;28;20214;-80
2023/12/08 08:04:39;;;;;;;29.88;17.88;;;;;;;;;;4981489;28;20183;-79
2023/12/08 08:07:05;;;;;;;26.30;17.20;;;;;;;;;;4981973;28;20262;-80
2023/12/08 08:09:31;;;;;;;28.48;18.17;;;;;;;;;;4982519;28;20438;-80
2023/12/08 08:11:57;;;;;;;34.27;17.60;;;;;;;;;;4981244;28;20546;-81
2023/12/08 08:14:23;;;;;;;27.00;15.93;;;;;;;;;;4972962;28;20442;-80
2023/12/08 08:16:49;;;;;;;30.33;16.83;;;;;;;;;;4981456;28;20433;-80
2023/12/08 08:19:15;;;;;;;27.83;16.15;;;;;;;;;;4992813;28;20417;-80
2023/12/08 08:21:41;;;;;;;29.17;16.50;;;;;;;;;;4962068;29;20555;-81
2023/12/08 08:24:07;;;;;;;30.33;16.00;;;;;;;;;;4977439;28;20210;-80
2023/12/08 08:26:33;;;;;;;30.63;17.65;;;;;;;;;;4990470;28;20403;-82
2023/12/08 08:28:59;;;;;;;28.73;17.20;;;;;;;;;;4993244;28;20338;-80
2023/12/08 08:31:25;;;;;;;26.88;17.42;;;;;;;;;;5000546;28;20450;-80
2023/12/08 08:33:51;;;;;;;24.50;16.30;;;;;;;;;;4982349;28;20273;-80
2023/12/08 08:36:17;;;;;;;29.23;17.10;;;;;;;;;;4981257;28;21197;-82
2023/12/08 08:38:43;;;;;;;28.10;19.43;;;;;;;;;;4981559;28;20821;-80
2023/12/08 08:41:09;;;;;;;22.23;15.45;;;;;;;;;;4981891;28;20413;-80
2023/12/08 08:43:36;;;;;;;27.60;17.03;;;;;;;;;;4978840;28;20183;-82
2023/12/08 08:46:02;;;;;;;29.35;16.38;;;;;;;;;;4980877;28;20407;-80
2023/12/08 08:48:28;;;;;;;35.22;16.45;;;;;;;;;;4981227;28;20219;-80
2023/12/08 08:50:54;;;;;;;25.57;15.60;;;;;;;;;;4980471;28;20184;-81
2023/12/08 08:53:20;;;;;;;23.10;15.67;;;;;;;;;;4981264;28;20419;-80
2023/12/08 08:55:46;;;;;;;24.02;14.73;;;;;;;;;;4980871;28;20948;-80
2023/12/08 08:58:12;;;;;;;25.90;16.05;;;;;;;;;;4980524;28;20314;-79
2023/12/08 09:00:38;;;;;;;23.83;15.25;;;;;;;;;;4981774;28;20568;-79
2023/12/08 09:03:03;;;;;;;21.10;15.03;;;;;;;;;;4979959;28;20176;-80
2023/12/08 09:05:30;;;;;;;27.65;15.18;;;;;;;;;;4980785;28;20418;-80
2023/12/08 09:07:56;;;;;;;23.40;16.27;;;;;;;;;;4980924;28;20564;-80
2023/12/08 09:10:22;;;;;;;21.55;14.93;;;;;;;;;;4981630;28;20263;-80
2023/12/08 09:12:48;;;;;;;23.48;14.68;;;;;;;;;;4979164;28;20710;-82
2023/12/08 09:15:14;;;;;;;21.52;12.68;;;;;;;;;;4976015;28;20196;-80
2023/12/08 09:17:41;;;;;;;21.08;14.60;;;;;;;;;;4980601;28;20199;-82
2023/12/08 09:20:12;;;;;;;22.63;15.57;;;;;;;;;;4959996;28;20175;-82
2023/12/08 09:22:38;;;;;;;23.92;14.93;;;;;;;;;;4961086;29;20182;-81
2023/12/08 09:25:04;;;;;;;22.97;14.27;;;;;;;;;;4960721;29;20235;-81
2023/12/08 09:27:30;;;;;;;20.98;13.85;;;;;;;;;;4960704;29;20460;-80
2023/12/08 09:29:56;;;;;;;21.93;14.40;;;;;;;;;;4960163;28;20184;-81
2023/12/08 09:32:22;;;;;;;21.67;13.80;;;;;;;;;;4961166;28;20514;-80
2023/12/08 09:34:48;;;;;;;19.83;13.55;;;;;;;;;;4959895;28;20408;-82
2023/12/08 09:37:14;;;;;;;22.25;13.70;;;;;;;;;;4960794;28;20583;-80
2023/12/08 09:39:40;;;;;;;21.88;13.88;;;;;;;;;;4960389;28;20545;-80
2023/12/08 09:42:11;;;;;;;24.13;14.45;;;;;;;;;;4959578;28;20265;-82
2023/12/08 09:44:37;;;;;;;21.02;13.95;;;;;;;;;;4960671;28;20192;-80
2023/12/08 09:47:04;;;;;;;20.25;13.18;;;;;;;;;;4959560;29;20683;-81
2023/12/08 09:49:37;;;;;;;23.02;13.18;;;;;;;;;;4959581;28;20208;-81
2023/12/08 09:52:03;;;;;;;19.23;12.65;;;;;;;;;;4960161;29;20245;-80
2023/12/08 09:54:29;;;;;;;23.55;13.35;;;;;;;;;;4959942;28;20199;-81
2023/12/08 09:56:56;;;;;;;20.77;14.10;;;;;;;;;;4959423;29;20586;-80
2023/12/08 09:59:23;;;;;;;20.85;12.88;;;;;;;;;;4959834;28;20235;-81
2023/12/08 10:01:49;;;;;;;17.52;12.13;;;;;;;;;;4959535;28;20269;-81
2023/12/08 10:04:15;;;;;;;18.90;13.70;;;;;;;;;;4959351;29;20268;-80
2023/12/08 10:06:42;;;;;;;17.87;12.40;;;;;;;;;;4959570;28;20256;-80
2023/12/08 10:09:08;;;;;;;19.42;12.98;;;;;;;;;;4959942;29;20908;-81
2023/12/08 10:11:34;;;;;;;17.60;12.45;;;;;;;;;;4958708;29;20207;-81
2023/12/08 10:14:01;;;;;;;19.27;13.67;;;;;;;;;;4959509;28;20191;-81
2023/12/08 10:16:27;;;;;;;23.05;12.05;;;;;;;;;;4973895;28;20409;-81
2023/12/08 10:19:03;;;;;;;16.63;12.50;;;;;;;;;;4959227;29;20183;-80
2023/12/08 10:21:29;;;;;;;17.17;12.40;;;;;;;;;;4961764;29;20176;-78
2023/12/08 10:24:00;;;;;;;20.10;12.77;;;;;;;;;;4960531;29;20187;-79
2023/12/08 10:26:26;;;;;;;19.02;12.88;;;;;;;;;;4962015;29;20385;-80
2023/12/08 10:28:59;;;;;;;16.23;12.45;;;;;;;;;;4959281;28;20207;-81
2023/12/08 10:31:26;;;;;;;17.48;12.18;;;;;;;;;;4959627;29;20213;-80
2023/12/08 10:33:52;;;;;;;16.13;11.63;;;;;;;;;;4958864;29;20208;-79
2023/12/08 10:36:19;;;;;;;19.90;12.85;;;;;;;;;;4959106;28;20263;-80
2023/12/08 10:38:46;;;;;;;14.80;10.95;;;;;;;;;;4959666;29;20185;-80
2023/12/08 10:41:13;;;;;;;15.48;11.10;;;;;;;;;;4958992;29;20196;-80
2023/12/08 10:43:39;;;;;;;16.63;9.63;;;;;;;;;;4959964;29;20173;-78
2023/12/08 10:46:06;;;;;;;18.00;12.25;;;;;;;;;;4959106;29;20177;-78
2023/12/08 10:48:32;;;;;;;15.60;10.20;;;;;;;;;;4958786;28;20208;-80
2023/12/08 10:50:59;;;;;;;20.05;10.95;;;;;;;;;;4959027;28;20188;-80
2023/12/08 10:53:25;;;;;;;17.90;11.10;;;;;;;;;;4959030;29;20245;-78
2023/12/08 10:56:03;;;;;;;17.35;11.20;;;;;;;;;;4958657;28;20176;-79
2023/12/08 10:58:32;;;;;;;18.17;11.85;;;;;;;;;;4960715;28;20172;-80
2023/12/08 11:00:58;;;;;;;16.90;10.23;;;;;;;;;;4958592;28;20182;-80
2023/12/08 11:03:32;;;;;;;15.57;9.98;;;;;;;;;;4958774;29;20180;-80
2023/12/08 11:06:11;;;;;;;14.30;9.98;;;;;;;;;;4958213;29;20172;-81
2023/12/08 11:08:39;;;;;;;15.85;10.55;;;;;;;;;;4958191;28;20231;-80
2023/12/08 11:11:07;;;;;;;15.38;10.40;;;;;;;;;;4958329;28;20312;-81
2023/12/08 11:13:38;;;;;;;14.40;9.52;;;;;;;;;;4958671;28;20251;-80
2023/12/08 11:16:04;;;;;;;16.13;9.20;;;;;;;;;;4958336;29;20183;-80
2023/12/08 11:18:30;;;;;;;13.67;10.23;;;;;;;;;;4958286;28;20228;-80
2023/12/08 11:20:56;;;;;;;12.20;8.85;;;;;;;;;;4957905;29;20452;-81
2023/12/08 11:23:24;;;;;;;12.95;9.27;;;;;;;;;;4958127;28;20184;-80
2023/12/08 11:25:59;;;;;;;12.77;8.90;;;;;;;;;;4957986;28;20187;-80
2023/12/08 11:28:33;;;;;;;13.63;10.32;;;;;;;;;;4957844;29;20175;-80
2023/12/08 11:31:13;;;;;;;14.27;9.68;;;;;;;;;;4957572;28;20209;-81
2023/12/08 11:33:52;;;;;;;21.17;10.40;;;;;;;;;;4957844;28;20177;-80
2023/12/08 11:36:18;;;;;;;13.63;9.43;;;;;;;;;;4957915;29;20261;-80
2023/12/08 11:38:44;;;;;;;17.05;10.55;;;;;;;;;;4957829;29;20268;-80
2023/12/08 11:41:13;;;;;;;15.35;9.35;;;;;;;;;;4957458;29;20216;-80
2023/12/08 11:43:42;;;;;;;14.35;8.93;;;;;;;;;;4957232;29;20181;-80
2023/12/08 11:46:08;;;;;;;16.30;8.73;;;;;;;;;;4957362;28;20244;-80
2023/12/08 11:48:34;;;;;;;18.42;10.38;;;;;;;;;;4957771;29;20181;-80
2023/12/08 11:51:03;;;;;;;16.90;9.10;;;;;;;;;;4957140;28;20184;-81
2023/12/08 11:53:32;;;;;;;13.82;8.02;;;;;;;;;;4961212;28;20519;-81
2023/12/08 11:55:58;;;;;;;14.15;8.57;;;;;;;;;;4957055;29;20180;-81
2023/12/08 11:58:32;;;;;;;13.20;8.17;;;;;;;;;;4956707;29;20603;-81
2023/12/08 12:01:02;;;;;;;17.10;8.65;;;;;;;;;;4958536;28;20440;-81
2023/12/08 12:03:30;;;;;;;14.20;7.93;;;;;;;;;;4960918;28;20251;-80
2023/12/08 12:05:56;;;;;;;14.57;8.88;;;;;;;;;;4959881;29;20181;-80
2023/12/08 12:08:25;;;;;;;17.42;8.95;;;;;;;;;;4960114;29;20236;-81
2023/12/08 12:10:53;;;;;;;14.95;9.13;;;;;;;;;;4959988;28;20196;-80
2023/12/08 12:13:20;;;;;;;16.85;8.50;;;;;;;;;;4958411;29;20182;-83
2023/12/08 12:15:46;;;;;;;17.13;9.70;;;;;;;;;;4959143;29;20207;-81
2023/12/08 12:18:13;;;;;;;17.17;7.82;;;;;;;;;;4959808;29;20184;-80
2023/12/08 12:20:39;;;;;;;15.73;9.10;;;;;;;;;;4959926;29;20184;-82
2023/12/08 12:23:05;;;;;;;11.10;8.20;;;;;;;;;;4959181;29;20656;-79
2023/12/08 12:25:31;;;;;;;17.88;9.02;;;;;;;;;;4960015;29;20413;-79
2023/12/08 12:27:57;;;;;;;15.48;8.48;;;;;;;;;;4959780;28;20243;-79
2023/12/08 12:30:23;;;;;;;18.48;9.45;;;;;;;;;;4959468;29;20180;-78
2023/12/08 12:32:50;;;;;;;14.75;9.80;;;;;;;;;;4959994;28;20208;-79
2023/12/08 12:35:16;;;;;;;13.13;9.38;;;;;;;;;;4959933;28;20547;-79
2023/12/08 12:37:45;;;;;;;19.70;10.02;;;;;;;;;;4959734;28;20182;-79
2023/12/08 12:40:12;;;;;;;14.75;9.00;;;;;;;;;;4960090;29;20176;-79
2023/12/08 12:42:47;;;;;;;14.65;9.38;;;;;;;;;;4960105;28;20184;-80
2023/12/08 12:45:30;;;;;;;12.38;8.77;;;;;;;;;;4959223;28;20187;-80
2023/12/08 12:48:00;;;;;;;20.58;9.55;;;;;;;;;;4959462;28;20219;-80
2023/12/08 12:50:26;;;;;;;22.92;10.20;;;;;;;;;;4958429;28;20192;-80
2023/12/08 12:53:03;;;;;;;16.23;8.50;;;;;;;;;;4963480;28;20607;-80
2023/12/08 12:55:30;;;;;;;21.10;9.73;;;;;;;;;;4975595;28;20938;-79
2023/12/08 12:57:56;;;;;;;23.13;11.07;;;;;;;;;;4977622;28;20195;-82
2023/12/08 13:00:32;;;;;;;14.77;9.23;;;;;;;;;;4978537;28;20180;-80
2023/12/08 13:03:08;;;;;;;17.05;8.57;;;;;;;;;;4978206;28;20513;-80
2023/12/08 13:05:34;;;;;;;20.35;9.75;;;;;;;;;;4978556;28;20190;-79
2023/12/08 13:08:00;;;;;;;22.95;10.07;;;;;;;;;;4978163;28;20239;-79
2023/12/08 13:10:29;;;;;;;13.23;8.30;;;;;;;;;;4978566;28;20556;-79
2023/12/08 13:12:55;;;;;;;18.00;9.20;;;;;;;;;;4977168;28;20850;-80
2023/12/08 13:15:21;;;;;;;22.25;9.27;;;;;;;;;;4977571;28;20719;-79
2023/12/08 13:17:47;;;;;;;15.60;8.20;;;;;;;;;;4977832;28;20182;-80
2023/12/08 13:20:13;;;;;;;15.17;8.50;;;;;;;;;;4977106;28;20422;-79
2023/12/08 13:22:39;;;;;;;26.07;10.07;;;;;;;;;;4977021;28;20932;-80
2023/12/08 13:25:05;;;;;;;15.10;8.60;;;;;;;;;;4991946;28;20434;-80
2023/12/08 13:27:31;;;;;;;22.38;9.00;;;;;;;;;;4977592;28;20423;-80
2023/12/08 13:29:57;;;;;;;16.65;8.80;;;;;;;;;;4977291;28;20194;-80
2023/12/08 13:32:24;;;;;;;11.73;7.80;;;;;;;;;;4977745;28;20223;-80
2023/12/08 13:34:50;;;;;;;23.58;9.63;;;;;;;;;;4977720;28;20769;-80
2023/12/08 13:37:16;;;;;;;16.93;8.10;;;;;;;;;;4977557;28;20185;-80
2023/12/08 13:39:42;;;;;;;17.00;7.32;;;;;;;;;;4977971;28;20408;-80
2023/12/08 13:42:08;;;;;;;17.03;7.57;;;;;;;;;;4977353;28;20265;-80
2023/12/08 13:44:34;;;;;;;17.07;8.00;;;;;;;;;;4977568;28;20419;-79
2023/12/08 13:47:00;;;;;;;11.00;8.07;;;;;;;;;;4977061;28;20411;-79
2023/12/08 13:49:26;;;;;;;14.70;8.15;;;;;;;;;;4977707;28;20416;-79
2023/12/08 13:51:52;;;;;;;13.83;7.63;;;;;;;;;;4977389;28;20207;-80
2023/12/08 13:54:18;;;;;;;15.40;7.60;;;;;;;;;;4977330;28;20419;-81
2023/12/08 13:56:44;;;;;;;14.83;6.70;;;;;;;;;;4977079;28;20416;-80
2023/12/08 13:59:10;;;;;;;10.98;6.90;;;;;;;;;;4977101;28;20412;-81
2023/12/08 14:01:36;;;;;;;12.97;6.53;;;;;;;;;;4977207;28;20194;-81
2023/12/08 14:04:02;;;;;;;17.10;6.67;;;;;;;;;;4976456;28;20469;-81
2023/12/08 14:06:28;;;;;;;16.08;6.35;;;;;;;;;;4977087;28;20430;-80
2023/12/08 14:08:54;;;;;;;16.70;7.10;;;;;;;;;;4976669;28;20762;-80
2023/12/08 14:11:20;;;;;;;11.82;6.45;;;;;;;;;;4976478;28;20215;-80
2023/12/08 14:13:46;;;;;;;10.27;5.82;;;;;;;;;;4976904;28;20263;-81
2023/12/08 14:16:12;;;;;;;20.10;8.03;;;;;;;;;;4977036;28;20176;-80
2023/12/08 14:18:38;;;;;;;15.95;8.18;;;;;;;;;;4977468;28;20438;-80